Time;durP1;ratioP1;P1;durP2;ratioP2;P2;SDS_P1;SDS_P2;PMS_P1;PMS_P2;Temp;Humidity;BMP_temperature;BMP_pressure;BME280_temperature;BME280_humidity;BME280_pressure;Samples;Min_cycle;Max_cycle;Signal;HPM_P1;HPM_P2
2022/08/02 00:00:13;;;;;;;10.50;4.53;;;14.90;99.90;;;;;;3059261;19;20022;-73
2022/08/02 00:01:17;;;;;;;10.23;4.20;;;14.80;99.90;;;;;;3058706;19;20014;-72
2022/08/02 00:02:21;;;;;;;10.25;5.18;;;14.80;99.90;;;;;;3058088;19;20014;-72
2022/08/02 00:03:23;;;;;;;9.82;4.15;;;15.00;99.90;;;;;;3058665;19;20011;-72
2022/08/02 00:04:27;;;;;;;12.13;4.68;;;14.50;99.90;;;;;;3059343;19;20039;-72
2022/08/02 00:05:28;;;;;;;10.35;3.90;;;15.10;99.90;;;;;;3058442;19;20007;-72
2022/08/02 00:06:32;;;;;;;10.60;4.30;;;14.80;99.90;;;;;;3059734;19;20027;-72
2022/08/02 00:07:34;;;;;;;9.05;3.75;;;16.30;99.90;;;;;;3058536;19;20019;-72
2022/08/02 00:08:38;;;;;;;;;;;14.70;99.90;;;;;;3058944;19;20014;-72
2022/08/02 00:09:39;;;;;;;8.43;4.05;;;14.70;99.90;;;;;;3059451;19;20325;-72
2022/08/02 00:10:43;;;;;;;9.20;3.60;;;14.80;99.90;;;;;;3059824;19;20039;-72
2022/08/02 00:11:44;;;;;;;7.20;3.40;;;14.90;99.90;;;;;;3058613;19;20002;-72
2022/08/02 00:12:48;;;;;;;8.43;3.70;;;14.70;99.90;;;;;;3059437;19;20043;-72
2022/08/02 00:13:50;;;;;;;9.07;4.20;;;14.80;99.90;;;;;;3058266;19;20011;-72
2022/08/02 00:14:54;;;;;;;7.85;3.75;;;14.70;99.90;;;;;;3059607;19;20018;-72
2022/08/02 00:15:55;;;;;;;9.82;3.65;;;14.80;99.90;;;;;;3057683;19;20011;-73
2022/08/02 00:17:01;;;;;;;10.35;3.58;;;14.80;99.90;;;;;;3056666;19;20003;-72
2022/08/02 00:18:03;;;;;;;10.48;3.72;;;14.80;99.90;;;;;;3057121;19;20006;-72
2022/08/02 00:19:07;;;;;;;10.20;4.15;;;14.80;99.90;;;;;;3057849;19;20046;-72
2022/08/02 00:20:10;;;;;;;9.13;3.53;;;14.50;99.90;;;;;;3059367;19;20026;-72
2022/08/02 00:21:16;;;;;;;10.15;3.83;;;14.50;99.90;;;;;;3057930;19;20043;-72
2022/08/02 00:22:17;;;;;;;9.88;3.92;;;14.80;99.90;;;;;;3058342;19;20038;-72
2022/08/02 00:23:21;;;;;;;6.78;3.55;;;14.70;99.90;;;;;;3057888;19;20492;-72
2022/08/02 00:24:22;;;;;;;7.80;3.90;;;14.20;99.90;;;;;;3058300;19;20017;-72
2022/08/02 00:25:26;;;;;;;14.35;4.00;;;14.50;99.90;;;;;;3057732;19;19998;-72
2022/08/02 00:26:27;;;;;;;8.70;3.70;;;14.80;99.90;;;;;;3058154;19;20031;-72
2022/08/02 00:27:31;;;;;;;8.65;3.45;;;14.70;99.90;;;;;;3058210;19;20016;-71
2022/08/02 00:28:33;;;;;;;9.65;4.10;;;14.40;99.90;;;;;;3058291;19;20064;-72
2022/08/02 00:29:38;;;;;;;10.35;4.10;;;14.70;99.90;;;;;;3058139;19;20011;-72
2022/08/02 00:30:40;;;;;;;5.50;3.42;;;14.60;99.90;;;;;;3059074;19;20407;-72
2022/08/02 00:31:44;;;;;;;7.45;4.25;;;14.50;99.90;;;;;;3057872;19;20007;-72
2022/08/02 00:32:47;;;;;;;6.82;3.90;;;14.40;99.90;;;;;;3059033;19;20022;-72
2022/08/02 00:33:52;;;;;;;13.73;4.38;;;14.60;99.90;;;;;;3058464;19;20014;-72
2022/08/02 00:34:54;;;;;;;7.18;3.80;;;14.60;99.90;;;;;;3058912;19;20166;-72
2022/08/02 00:35:58;;;;;;;7.95;4.18;;;14.50;99.90;;;;;;3057975;19;20015;-72
2022/08/02 00:36:59;;;;;;;10.38;3.97;;;14.60;99.90;;;;;;3059865;19;20011;-72
2022/08/02 00:38:04;;;;;;;10.10;4.68;;;14.50;99.90;;;;;;3057830;19;20426;-72
2022/08/02 00:39:05;;;;;;;10.00;4.18;;;16.40;99.90;;;;;;3059272;19;20026;-72
2022/08/02 00:40:11;;;;;;;7.65;4.50;;;14.40;99.90;;;;;;3059180;19;20498;-72
2022/08/02 00:41:15;;;;;;;8.20;4.43;;;14.50;99.90;;;;;;3059556;19;20018;-72
2022/08/02 00:42:19;;;;;;;9.40;3.97;;;14.50;99.90;;;;;;3057717;19;20348;-72
2022/08/02 00:43:20;;;;;;;12.77;4.25;;;14.30;99.90;;;;;;3059594;19;20021;-72
2022/08/02 00:44:24;;;;;;;13.05;4.53;;;14.30;99.90;;;;;;3058192;19;20038;-72
2022/08/02 00:45:26;;;;;;;7.53;4.15;;;14.30;99.90;;;;;;3057756;19;20029;-72
2022/08/02 00:46:30;;;;;;;9.75;4.60;;;14.20;99.90;;;;;;3058743;19;20018;-72
2022/08/02 00:47:33;;;;;;;9.02;4.35;;;14.40;99.90;;;;;;3058165;19;20090;-72
2022/08/02 00:48:38;;;;;;;8.35;4.30;;;14.10;99.90;;;;;;3058783;19;20017;-72
2022/08/02 00:49:41;;;;;;;9.43;4.63;;;14.30;99.90;;;;;;3058549;19;20014;-72
2022/08/02 00:50:43;;;;;;;9.90;4.82;;;14.30;99.90;;;;;;3059296;19;20078;-72
2022/08/02 00:51:47;;;;;;;9.20;4.55;;;14.50;99.90;;;;;;3058036;19;20009;-72
2022/08/02 00:52:48;;;;;;;11.50;4.95;;;14.30;99.90;;;;;;3057619;19;20007;-72
2022/08/02 00:53:52;;;;;;;7.72;4.30;;;14.20;99.90;;;;;;3058260;19;20010;-72
2022/08/02 00:54:53;;;;;;;9.23;4.65;;;14.30;99.90;;;;;;3056526;19;20374;-72
2022/08/02 00:55:57;;;;;;;10.90;4.68;;;14.10;99.90;;;;;;3055892;19;20032;-72
2022/08/02 00:56:59;;;;;;;11.27;4.60;;;15.20;99.90;;;;;;3055979;19;20030;-73
2022/08/02 00:58:02;;;;;;;6.35;4.00;;;14.00;99.90;;;;;;3057693;19;20014;-72
2022/08/02 00:59:04;;;;;;;9.65;4.68;;;14.20;99.90;;;;;;3057622;19;20360;-72
2022/08/02 01:00:09;;;;;;;9.90;4.32;;;14.30;99.90;;;;;;3057998;19;20018;-72
2022/08/02 01:01:14;;;;;;;7.78;4.30;;;14.10;99.90;;;;;;3057997;19;20030;-72
2022/08/02 01:02:18;;;;;;;9.60;4.22;;;14.50;99.90;;;;;;3058215;19;20023;-72
2022/08/02 01:03:19;;;;;;;7.82;4.28;;;14.20;99.90;;;;;;3057419;19;20011;-72
2022/08/02 01:04:27;;;;;;;9.48;4.28;;;14.30;99.90;;;;;;3057724;19;20343;-72
2022/08/02 01:05:29;;;;;;;9.23;4.15;;;14.20;99.90;;;;;;3057445;19;20349;-72
2022/08/02 01:06:34;;;;;;;8.18;4.70;;;14.00;99.90;;;;;;3058164;19;20018;-72
2022/08/02 01:07:35;;;;;;;9.15;4.28;;;14.10;99.90;;;;;;3058796;19;20002;-72
2022/08/02 01:08:39;;;;;;;7.30;4.25;;;14.00;99.90;;;;;;3059618;19;20070;-72
2022/08/02 01:09:41;;;;;;;8.63;4.60;;;14.10;99.90;;;;;;3057438;19;20011;-72
2022/08/02 01:10:45;;;;;;;;;;;14.10;99.90;;;;;;3059049;19;20018;-73
2022/08/02 01:11:46;;;;;;;8.77;4.10;;;14.10;99.90;;;;;;3059084;19;19950;-73
2022/08/02 01:12:50;;;;;;;7.55;4.43;;;14.00;99.90;;;;;;3057638;19;20512;-72
2022/08/02 01:13:52;;;;;;;8.07;4.40;;;14.00;99.90;;;;;;3058234;19;20014;-72
2022/08/02 01:14:57;;;;;;;;;;;13.80;99.90;;;;;;3057881;19;20039;-72
2022/08/02 01:16:03;;;;;;;8.63;4.10;;;14.00;99.90;;;;;;3057830;19;19942;-72
2022/08/02 01:17:12;;;;;;;9.13;4.40;;;13.90;99.90;;;;;;3057946;19;20010;-72
2022/08/02 01:18:18;;;;;;;8.02;4.00;;;13.90;99.90;;;;;;3058958;19;20018;-72
2022/08/02 01:19:36;;;;;;;7.10;4.13;;;13.80;99.90;;;;;;3056802;19;20022;-72
2022/08/02 01:21:19;;;;;;;10.43;4.30;;;13.80;99.90;;;;;;3057862;19;20034;-73
2022/08/02 01:22:54;;;;;;;10.48;4.00;;;13.80;99.90;;;;;;3057008;19;20035;-72
2022/08/02 01:24:05;;;;;;;11.75;4.40;;;13.70;99.90;;;;;;3055671;19;20017;-72
2022/08/02 01:25:32;;;;;;;8.32;4.30;;;13.70;99.90;;;;;;3059140;19;20038;-72
2022/08/02 01:26:48;;;;;;;10.27;4.57;;;13.90;99.90;;;;;;3058740;19;20018;-72
2022/08/02 01:28:07;;;;;;;8.68;4.05;;;13.90;99.90;;;;;;3057938;19;20023;-72
2022/08/02 01:29:18;;;;;;;8.07;3.83;;;13.70;99.90;;;;;;3060028;19;20372;-72
2022/08/02 01:30:20;;;;;;;8.48;4.10;;;13.70;99.90;;;;;;3061211;19;20014;-72
2022/08/02 01:31:30;;;;;;;7.50;4.28;;;13.70;99.90;;;;;;3061193;19;20014;-73
2022/08/02 01:32:39;;;;;;;7.20;4.28;;;13.40;99.90;;;;;;3061253;19;20022;-72
2022/08/02 01:33:50;;;;;;;7.80;4.30;;;13.60;99.90;;;;;;3060840;19;20010;-72
2022/08/02 01:34:56;;;;;;;8.30;4.28;;;13.60;99.90;;;;;;3058954;19;20022;-72
2022/08/02 01:36:01;;;;;;;10.35;4.47;;;13.60;99.90;;;;;;3059797;19;20026;-72
2022/08/02 01:37:06;;;;;;;7.80;3.88;;;13.90;99.90;;;;;;3060721;19;20007;-72
2022/08/02 01:38:16;;;;;;;9.45;4.57;;;13.60;99.90;;;;;;3060164;19;20015;-72
2022/08/02 01:39:24;;;;;;;9.23;4.03;;;13.70;99.90;;;;;;3061902;19;20019;-72
2022/08/02 01:40:29;;;;;;;8.25;4.18;;;13.50;99.90;;;;;;3060366;19;20026;-72
2022/08/02 01:41:35;;;;;;;7.25;3.90;;;13.70;99.90;;;;;;3061395;19;20118;-72
2022/08/02 01:42:42;;;;;;;9.32;4.30;;;13.40;99.90;;;;;;3060159;19;20024;-72
2022/08/02 01:43:52;;;;;;;9.25;4.45;;;13.60;99.90;;;;;;3060830;19;20410;-73
2022/08/02 01:44:54;;;;;;;6.65;3.72;;;13.80;99.90;;;;;;3060285;19;20030;-72
2022/08/02 01:46:00;;;;;;;7.43;3.90;;;13.40;99.90;;;;;;3061158;19;20015;-72
2022/08/02 01:47:05;;;;;;;7.30;4.15;;;13.50;99.90;;;;;;3060422;19;20336;-72
2022/08/02 01:48:10;;;;;;;9.88;4.70;;;13.50;99.90;;;;;;3060667;19;20006;-72
2022/08/02 01:49:17;;;;;;;9.98;4.68;;;13.40;99.90;;;;;;3061992;19;20011;-72
2022/08/02 01:50:34;;;;;;;7.50;4.30;;;13.50;99.90;;;;;;3062026;19;20027;-73
2022/08/02 01:52:58;;;;;;;10.15;4.75;;;13.50;99.90;;;;;;3070571;19;20038;-72
2022/08/02 01:54:00;;;;;;;8.32;4.03;;;13.60;99.90;;;;;;3066240;19;20021;-72
2022/08/02 01:55:09;;;;;;;9.02;4.35;;;13.40;99.90;;;;;;3069339;19;20002;-72
2022/08/02 01:56:13;;;;;;;9.32;4.30;;;13.30;99.90;;;;;;3062348;19;20006;-72
2022/08/02 01:57:18;;;;;;;8.85;4.68;;;13.40;99.90;;;;;;3072216;19;20018;-72
2022/08/02 01:58:23;;;;;;;9.85;4.97;;;13.50;99.90;;;;;;3065646;19;20022;-72
2022/08/02 01:59:33;;;;;;;8.07;4.70;;;13.30;99.90;;;;;;3061894;19;20006;-72
2022/08/02 02:00:39;;;;;;;9.15;4.60;;;13.30;99.90;;;;;;3062066;19;20042;-72
2022/08/02 02:01:44;;;;;;;7.05;4.50;;;13.30;99.90;;;;;;3061315;19;20015;-73
2022/08/02 02:02:48;;;;;;;8.07;4.40;;;13.00;99.90;;;;;;3060815;19;20426;-72
2022/08/02 02:03:52;;;;;;;7.38;4.30;;;13.00;99.90;;;;;;3059770;19;20015;-72
2022/08/02 02:04:59;;;;;;;7.47;4.38;;;13.30;99.90;;;;;;3062509;19;20025;-72
2022/08/02 02:06:02;;;;;;;11.35;4.20;;;13.30;99.90;;;;;;3060268;19;20011;-72
2022/08/02 02:07:08;;;;;;;11.30;4.25;;;13.10;99.90;;;;;;3060507;19;20017;-72
2022/08/02 02:08:11;;;;;;;10.15;4.32;;;13.10;99.90;;;;;;3060206;19;20039;-72
2022/08/02 02:09:16;;;;;;;8.07;4.78;;;13.10;99.90;;;;;;3060189;19;20500;-72
2022/08/02 02:10:23;;;;;;;9.18;4.70;;;13.10;99.90;;;;;;3059459;19;20027;-72
2022/08/02 02:11:27;;;;;;;7.95;4.82;;;13.20;99.90;;;;;;3060200;19;20074;-73
2022/08/02 02:12:30;;;;;;;12.02;4.40;;;13.00;99.90;;;;;;3061687;19;20010;-73
2022/08/02 02:13:35;;;;;;;7.45;4.40;;;13.30;99.90;;;;;;3060000;19;20069;-72
2022/08/02 02:14:41;;;;;;;8.55;4.45;;;13.30;99.90;;;;;;3060432;19;20017;-73
2022/08/02 02:15:49;;;;;;;9.88;4.95;;;13.20;99.90;;;;;;3061905;19;20032;-74
2022/08/02 02:16:51;;;;;;;6.65;4.70;;;13.20;99.90;;;;;;3061041;19;20006;-72
2022/08/02 02:17:57;;;;;;;10.73;5.55;;;13.00;99.90;;;;;;3060330;19;20018;-72
2022/08/02 02:19:01;;;;;;;9.50;5.13;;;13.10;99.90;;;;;;3060207;19;20018;-72
2022/08/02 02:20:07;;;;;;;11.60;5.10;;;13.50;99.90;;;;;;3058686;19;20482;-72
2022/08/02 02:21:08;;;;;;;8.48;4.35;;;13.20;99.90;;;;;;3060061;19;20026;-72
2022/08/02 02:22:13;;;;;;;8.95;4.38;;;13.20;99.90;;;;;;3059507;19;20476;-72
2022/08/02 02:23:16;;;;;;;12.10;4.93;;;13.10;99.90;;;;;;3059523;19;20007;-73
2022/08/02 02:24:20;;;;;;;9.32;4.28;;;13.10;99.90;;;;;;3060696;19;20062;-72
2022/08/02 02:25:22;;;;;;;7.40;4.60;;;13.30;99.90;;;;;;3059577;19;20400;-71
2022/08/02 02:26:27;;;;;;;9.70;4.63;;;13.00;99.90;;;;;;3059689;19;20010;-72
2022/08/02 02:27:28;;;;;;;10.27;4.70;;;13.20;99.90;;;;;;3060964;19;20099;-72
2022/08/02 02:28:33;;;;;;;;;;;13.40;99.90;;;;;;3061729;19;20074;-72
2022/08/02 02:29:38;;;;;;;8.32;4.43;;;13.00;99.90;;;;;;3060757;19;20325;-72
2022/08/02 02:30:50;;;;;;;11.25;4.32;;;12.90;99.90;;;;;;3059715;19;20035;-72
2022/08/02 02:31:54;;;;;;;9.75;4.80;;;13.00;99.90;;;;;;3059546;19;20378;-72
2022/08/02 02:33:02;;;;;;;10.65;4.88;;;13.30;99.90;;;;;;3059442;19;20358;-72
2022/08/02 02:34:13;;;;;;;10.30;4.75;;;13.10;99.90;;;;;;3060005;19;20437;-72
2022/08/02 02:35:19;;;;;;;8.98;4.78;;;13.50;99.90;;;;;;3058369;19;20019;-72
2022/08/02 02:36:21;;;;;;;10.50;4.63;;;12.90;99.90;;;;;;3059920;19;20026;-73
2022/08/02 02:37:28;;;;;;;6.75;4.30;;;13.30;99.90;;;;;;3059815;19;20017;-73
2022/08/02 02:38:31;;;;;;;10.18;4.78;;;13.10;99.90;;;;;;3059429;19;20399;-72
2022/08/02 02:39:37;;;;;;;10.77;5.28;;;13.00;99.90;;;;;;3059973;19;20038;-72
2022/08/02 02:40:40;;;;;;;10.05;4.90;;;12.70;99.90;;;;;;3057812;19;20042;-72
2022/08/02 02:41:45;;;;;;;9.27;4.90;;;13.10;99.90;;;;;;3061137;19;20074;-72
2022/08/02 02:42:48;;;;;;;9.38;4.57;;;13.00;99.90;;;;;;3061154;19;20027;-72
2022/08/02 02:43:55;;;;;;;9.93;4.68;;;13.00;99.90;;;;;;3060782;19;20015;-73
2022/08/02 02:44:58;;;;;;;12.45;5.20;;;12.90;99.90;;;;;;3059858;19;20018;-72
2022/08/02 02:46:06;;;;;;;9.30;4.65;;;12.80;99.90;;;;;;3061108;19;20034;-72
2022/08/02 02:47:09;;;;;;;9.43;4.82;;;12.80;99.90;;;;;;3060727;19;20364;-72
2022/08/02 02:48:15;;;;;;;8.55;4.65;;;13.00;99.90;;;;;;3059762;19;20373;-72
2022/08/02 02:49:18;;;;;;;10.23;4.63;;;13.00;99.90;;;;;;3060437;19;20018;-73
2022/08/02 02:50:23;;;;;;;7.10;4.47;;;12.90;99.90;;;;;;3059633;19;20014;-72
2022/08/02 02:51:24;;;;;;;9.73;4.80;;;13.00;99.90;;;;;;3059707;19;20561;-72
2022/08/02 02:52:28;;;;;;;8.32;4.68;;;12.90;99.90;;;;;;3060213;19;20465;-73
2022/08/02 02:53:31;;;;;;;8.57;4.78;;;13.10;99.90;;;;;;3059677;19;20014;-72
2022/08/02 02:54:35;;;;;;;9.30;4.85;;;12.70;99.90;;;;;;3059130;19;20365;-73
2022/08/02 02:55:38;;;;;;;11.82;5.05;;;12.70;99.90;;;;;;3058431;19;20074;-72
2022/08/02 02:56:44;;;;;;;11.02;4.90;;;12.70;99.90;;;;;;3059775;19;20490;-72
2022/08/02 02:57:46;;;;;;;11.48;4.97;;;12.80;99.90;;;;;;3060695;19;20423;-73
2022/08/02 02:58:51;;;;;;;11.30;4.95;;;12.60;99.90;;;;;;3059585;19;20023;-72
2022/08/02 02:59:53;;;;;;;11.48;4.95;;;13.20;99.90;;;;;;3059160;19;20011;-72
2022/08/02 03:02:17;;;;;;;10.45;4.80;;;12.80;99.90;;;;;;3059328;19;20078;-73
2022/08/02 03:03:19;;;;;;;12.07;4.78;;;12.70;99.90;;;;;;3059390;19;20027;-73
2022/08/02 03:04:25;;;;;;;13.35;5.00;;;13.10;99.90;;;;;;3059078;19;20040;-72
2022/08/02 03:05:26;;;;;;;11.45;5.03;;;13.10;99.90;;;;;;3059356;19;20027;-72
2022/08/02 03:06:31;;;;;;;8.52;4.90;;;13.20;99.90;;;;;;3060779;19;20016;-73
2022/08/02 03:07:33;;;;;;;10.90;4.80;;;13.30;99.90;;;;;;3059788;19;20023;-72
2022/08/02 03:08:37;;;;;;;8.90;4.45;;;12.60;99.90;;;;;;3059585;19;20551;-72
2022/08/02 03:09:39;;;;;;;9.88;4.57;;;12.70;99.90;;;;;;3059043;19;20026;-72
2022/08/02 03:10:45;;;;;;;9.23;4.47;;;12.70;99.90;;;;;;3058787;19;20042;-73
2022/08/02 03:11:46;;;;;;;12.48;4.80;;;12.50;99.90;;;;;;3058493;19;20035;-73
2022/08/02 03:12:51;;;;;;;10.25;4.63;;;12.60;99.90;;;;;;3060426;19;20501;-73
2022/08/02 03:13:52;;;;;;;9.60;4.50;;;12.60;99.90;;;;;;3059657;19;20368;-72
2022/08/02 03:14:56;;;;;;;7.93;4.35;;;12.70;99.90;;;;;;3058761;19;20465;-72
2022/08/02 03:16:00;;;;;;;8.10;4.78;;;12.70;99.90;;;;;;3058565;19;20019;-72
2022/08/02 03:17:04;;;;;;;8.75;5.10;;;12.60;99.90;;;;;;3060214;19;20043;-72
2022/08/02 03:18:08;;;;;;;9.52;5.05;;;12.90;99.90;;;;;;3059056;19;20018;-72
2022/08/02 03:19:12;;;;;;;10.00;5.07;;;13.00;99.90;;;;;;3058925;19;20010;-72
2022/08/02 03:20:18;;;;;;;9.25;4.50;;;12.70;99.90;;;;;;3059006;19;20433;-72
2022/08/02 03:21:23;;;;;;;8.52;4.47;;;12.90;99.90;;;;;;3059111;19;20030;-72
2022/08/02 03:22:24;;;;;;;11.43;4.85;;;12.40;99.90;;;;;;3060074;19;20022;-72
2022/08/02 03:23:30;;;;;;;11.15;4.63;;;12.60;99.90;;;;;;3059699;19;20134;-72
2022/08/02 03:24:31;;;;;;;8.60;4.78;;;12.30;99.90;;;;;;3057602;19;20015;-73
2022/08/02 03:25:36;;;;;;;9.90;4.70;;;;;;;;;;3058878;19;20342;-73
2022/08/02 03:26:37;;;;;;;8.05;4.57;;;12.60;99.90;;;;;;3059026;19;20433;-72
2022/08/02 03:27:42;;;;;;;9.10;4.60;;;12.50;99.90;;;;;;3059593;19;20022;-72
2022/08/02 03:28:44;;;;;;;12.55;4.70;;;12.30;99.90;;;;;;3060272;19;20015;-72
2022/08/02 03:29:48;;;;;;;11.45;5.07;;;;;;;;;;3060748;19;20010;-72
2022/08/02 03:30:49;;;;;;;11.85;4.70;;;12.30;99.90;;;;;;3059990;19;20030;-72
2022/08/02 03:31:54;;;;;;;9.80;4.70;;;12.30;99.90;;;;;;3059247;19;20014;-73
2022/08/02 03:32:55;;;;;;;10.50;4.72;;;;;;;;;;3059882;19;20011;-72
2022/08/02 03:34:03;;;;;;;10.45;4.90;;;12.20;99.90;;;;;;3058840;19;20364;-72
2022/08/02 03:35:06;;;;;;;11.32;4.68;;;12.50;99.90;;;;;;3059528;19;20019;-72
2022/08/02 03:36:14;;;;;;;11.65;4.88;;;12.40;99.90;;;;;;3059685;19;20018;-72
2022/08/02 03:37:18;;;;;;;9.85;4.55;;;12.30;99.90;;;;;;3058726;19;20010;-72
2022/08/02 03:38:22;;;;;;;11.52;4.78;;;12.50;99.90;;;;;;3059959;19;20022;-72
2022/08/02 03:39:28;;;;;;;11.68;5.20;;;12.60;99.90;;;;;;3059917;19;20146;-72
2022/08/02 03:40:30;;;;;;;12.35;4.80;;;12.40;99.90;;;;;;3059832;19;20413;-72
2022/08/02 03:41:37;;;;;;;12.13;5.03;;;12.70;99.90;;;;;;3059791;19;20010;-72
2022/08/02 03:42:39;;;;;;;11.35;5.10;;;12.40;99.90;;;;;;3059585;19;20021;-72
2022/08/02 03:43:44;;;;;;;7.97;4.55;;;12.40;99.90;;;;;;3058891;19;20483;-73
2022/08/02 03:44:46;;;;;;;10.32;4.95;;;12.20;99.90;;;;;;3058924;19;19999;-72
2022/08/02 03:45:52;;;;;;;10.52;4.65;;;12.50;99.90;;;;;;3059165;19;20029;-73
2022/08/02 03:46:53;;;;;;;8.50;4.85;;;12.80;99.90;;;;;;3058893;19;20009;-72
2022/08/02 03:47:57;;;;;;;;;;;12.60;99.90;;;;;;3058993;19;20014;-72
2022/08/02 03:49:02;;;;;;;8.32;4.88;;;12.30;99.90;;;;;;3057919;19;20384;-73
2022/08/02 03:50:07;;;;;;;12.75;5.07;;;12.40;99.90;;;;;;3057708;19;20104;-73
2022/08/02 03:51:09;;;;;;;9.88;4.65;;;12.40;99.90;;;;;;3058974;19;20511;-72
2022/08/02 03:52:13;;;;;;;10.25;5.00;;;12.60;99.90;;;;;;3057619;19;20014;-72
2022/08/02 03:53:16;;;;;;;12.18;5.25;;;12.40;99.90;;;;;;3058849;19;20034;-73
2022/08/02 03:54:20;;;;;;;11.38;5.00;;;12.30;99.90;;;;;;3059555;19;20015;-72
2022/08/02 03:55:22;;;;;;;9.70;4.75;;;12.40;99.90;;;;;;3058111;19;20025;-72
2022/08/02 03:56:26;;;;;;;10.50;4.60;;;12.40;99.90;;;;;;3058244;19;20047;-72
2022/08/02 03:57:27;;;;;;;12.88;5.18;;;;;;;;;;3059871;19;20081;-72
2022/08/02 03:58:31;;;;;;;9.70;5.07;;;12.20;99.90;;;;;;3058816;19;20015;-72
2022/08/02 03:59:39;;;;;;;8.40;4.85;;;12.40;99.90;;;;;;3059994;19;20022;-72
2022/08/02 04:00:43;;;;;;;8.23;4.60;;;12.20;99.90;;;;;;3059265;19;20475;-72
2022/08/02 04:01:47;;;;;;;11.55;4.78;;;12.60;99.90;;;;;;3058698;19;20010;-72
2022/08/02 04:02:49;;;;;;;9.77;4.80;;;12.40;99.90;;;;;;3058309;19;20456;-72
2022/08/02 04:03:53;;;;;;;9.77;5.00;;;12.60;99.90;;;;;;3059418;19;20090;-72
2022/08/02 04:04:57;;;;;;;9.23;4.72;;;12.30;99.90;;;;;;3058782;19;20021;-72
2022/08/02 04:06:01;;;;;;;11.07;4.82;;;12.30;99.90;;;;;;3058767;19;20488;-72
2022/08/02 04:07:02;;;;;;;8.93;4.50;;;12.20;99.90;;;;;;3058511;19;20017;-72
2022/08/02 04:08:06;;;;;;;7.90;4.63;;;12.40;99.90;;;;;;3058946;19;20031;-72
2022/08/02 04:09:10;;;;;;;8.25;4.35;;;12.30;99.90;;;;;;3058351;19;20476;-73
2022/08/02 04:10:12;;;;;;;11.27;4.72;;;12.30;99.90;;;;;;3059366;19;20500;-72
2022/08/02 04:12:32;;;;;;;9.75;4.40;;;12.30;99.90;;;;;;3057905;19;20043;-72
2022/08/02 04:13:35;;;;;;;6.80;4.00;;;11.90;99.90;;;;;;3058639;19;20007;-72
2022/08/02 04:14:39;;;;;;;9.93;4.80;;;12.30;99.90;;;;;;3060297;19;20415;-72
2022/08/02 04:15:41;;;;;;;7.80;4.50;;;12.20;99.90;;;;;;3058394;19;20011;-72
2022/08/02 04:16:47;;;;;;;14.05;5.80;;;12.40;99.90;;;;;;3059926;19;20014;-72
2022/08/02 04:17:55;;;;;;;11.30;5.28;;;12.40;99.90;;;;;;3059501;19;20045;-72
2022/08/02 04:19:02;;;;;;;11.15;4.93;;;12.20;99.90;;;;;;3057841;19;20010;-72
2022/08/02 04:20:11;;;;;;;8.55;4.80;;;12.50;99.90;;;;;;3057524;19;20030;-72
2022/08/02 04:21:19;;;;;;;10.13;4.97;;;12.40;99.90;;;;;;3057965;19;20010;-72
2022/08/02 04:22:24;;;;;;;11.07;5.05;;;12.70;99.90;;;;;;3058151;19;19994;-72
2022/08/02 04:23:29;;;;;;;12.18;5.22;;;12.90;99.90;;;;;;3058729;19;20028;-72
2022/08/02 04:24:36;;;;;;;10.40;4.90;;;12.60;99.90;;;;;;3058352;19;20041;-72
2022/08/02 04:25:43;;;;;;;10.90;4.85;;;12.50;99.90;;;;;;3058080;19;20029;-73
2022/08/02 04:26:44;;;;;;;10.35;4.70;;;12.30;99.90;;;;;;3059029;19;20022;-73
2022/08/02 04:27:49;;;;;;;10.88;5.10;;;12.50;99.90;;;;;;3057870;19;20015;-72
2022/08/02 04:28:54;;;;;;;8.57;5.07;;;12.40;99.90;;;;;;3059468;19;20018;-72
2022/08/02 04:30:00;;;;;;;9.93;4.88;;;12.60;99.90;;;;;;3058317;19;20021;-73
2022/08/02 04:31:02;;;;;;;9.13;4.78;;;12.10;99.90;;;;;;3058170;19;20021;-72
2022/08/02 04:32:08;;;;;;;9.27;5.03;;;12.50;99.90;;;;;;3058129;19;20018;-72
2022/08/02 04:33:10;;;;;;;11.43;5.10;;;12.50;99.90;;;;;;3057813;19;20468;-72
2022/08/02 04:34:14;;;;;;;11.68;4.95;;;;;;;;;;3058073;19;20009;-72
2022/08/02 04:35:18;;;;;;;12.90;5.30;;;12.30;99.90;;;;;;3057381;19;20031;-73
2022/08/02 04:36:23;;;;;;;7.20;4.60;;;12.50;99.90;;;;;;3058292;19;20047;-73
2022/08/02 04:37:26;;;;;;;11.43;5.20;;;12.40;99.90;;;;;;3057992;19;20346;-72
2022/08/02 04:38:30;;;;;;;11.65;4.78;;;12.40;99.90;;;;;;3059937;19;20354;-72
2022/08/02 04:39:31;;;;;;;10.02;5.40;;;12.40;99.90;;;;;;3057863;19;20361;-72
2022/08/02 04:40:35;;;;;;;10.30;4.93;;;12.80;99.90;;;;;;3058118;19;20480;-72
2022/08/02 04:41:38;;;;;;;7.60;5.10;;;13.00;99.90;;;;;;3057874;19;20017;-72
2022/08/02 04:42:42;;;;;;;9.98;5.07;;;12.20;99.90;;;;;;3058014;19;20013;-73
2022/08/02 04:43:43;;;;;;;8.43;5.15;;;12.40;99.90;;;;;;3058392;19;20023;-72
2022/08/02 04:44:47;;;;;;;11.45;4.88;;;12.30;99.90;;;;;;3057772;19;20014;-72
2022/08/02 04:45:51;;;;;;;10.48;5.53;;;12.50;99.90;;;;;;3059508;19;20560;-72
2022/08/02 04:46:55;;;;;;;9.95;4.75;;;12.40;99.90;;;;;;3057859;19;20003;-72
2022/08/02 04:47:57;;;;;;;10.73;5.35;;;;;;;;;;3057807;19;20010;-71
2022/08/02 04:49:00;;;;;;;11.13;5.53;;;12.40;99.90;;;;;;3058201;19;20059;-71
2022/08/02 04:50:02;;;;;;;10.43;5.40;;;12.40;99.90;;;;;;3057721;19;20094;-71
2022/08/02 04:51:09;;;;;;;10.15;4.75;;;12.50;99.90;;;;;;3057674;19;20003;-71
2022/08/02 04:52:10;;;;;;;12.65;5.20;;;12.60;99.90;;;;;;3057775;19;20014;-72
2022/08/02 04:53:14;;;;;;;9.60;5.20;;;12.20;99.90;;;;;;3057765;19;20013;-72
2022/08/02 04:54:15;;;;;;;10.70;5.68;;;12.80;99.90;;;;;;3057688;19;20018;-72
2022/08/02 04:55:19;;;;;;;15.55;5.63;;;12.20;99.90;;;;;;3057637;19;20030;-72
2022/08/02 04:56:21;;;;;;;14.02;5.32;;;12.30;99.90;;;;;;3056747;19;20015;-72
2022/08/02 04:58:41;;;;;;;12.52;5.60;;;12.40;99.90;;;;;;3057491;19;20480;-72
2022/08/02 04:59:42;;;;;;;11.18;5.30;;;12.20;99.90;;;;;;3058056;19;20011;-72
2022/08/02 05:00:46;;;;;;;9.00;4.95;;;12.20;99.90;;;;;;3057650;19;20034;-72
2022/08/02 05:01:48;;;;;;;11.10;5.22;;;12.40;99.90;;;;;;3059123;19;20038;-72
2022/08/02 05:02:53;;;;;;;11.10;5.68;;;12.30;99.90;;;;;;3057444;19;20011;-72
2022/08/02 05:03:57;;;;;;;10.52;5.80;;;12.30;99.90;;;;;;3056365;19;20487;-72
2022/08/02 05:04:58;;;;;;;12.52;5.70;;;12.60;99.90;;;;;;3058325;19;20021;-72
2022/08/02 05:06:02;;;;;;;8.32;5.05;;;12.50;99.90;;;;;;3058139;19;20035;-72
2022/08/02 05:07:06;;;;;;;11.25;5.28;;;12.30;99.90;;;;;;3057550;19;20452;-72
2022/08/02 05:08:10;;;;;;;10.60;5.00;;;12.80;99.90;;;;;;3058070;19;20011;-72
2022/08/02 05:09:11;;;;;;;12.57;6.07;;;12.40;99.90;;;;;;3057001;19;20014;-72
2022/08/02 05:10:15;;;;;;;13.15;5.70;;;12.40;99.90;;;;;;3057793;19;20011;-72
2022/08/02 05:11:19;;;;;;;9.38;5.45;;;12.50;99.90;;;;;;3058704;19;20026;-72
2022/08/02 05:12:23;;;;;;;14.18;5.60;;;;;;;;;;3057644;19;20015;-73
2022/08/02 05:13:27;;;;;;;11.52;5.53;;;12.50;99.90;;;;;;3057538;19;20018;-72
2022/08/02 05:14:28;;;;;;;14.02;5.55;;;12.60;99.90;;;;;;3058555;19;20022;-73
2022/08/02 05:15:32;;;;;;;12.55;5.82;;;;;;;;;;3058021;19;20038;-76
2022/08/02 05:16:36;;;;;;;10.43;5.35;;;12.70;99.90;;;;;;3058134;19;20507;-74
2022/08/02 05:17:38;;;;;;;12.18;5.65;;;12.70;99.90;;;;;;3057250;19;20014;-74
2022/08/02 05:18:42;;;;;;;10.02;5.57;;;12.70;99.90;;;;;;3058148;19;20031;-74
2022/08/02 05:19:43;;;;;;;12.93;5.85;;;12.60;99.90;;;;;;3056739;19;20026;-74
2022/08/02 05:20:47;;;;;;;;;;;12.80;99.90;;;;;;3058487;19;20024;-74
2022/08/02 05:21:48;;;;;;;11.43;5.55;;;12.70;99.90;;;;;;3057484;19;19915;-75
2022/08/02 05:22:55;;;;;;;10.60;5.35;;;12.70;99.90;;;;;;3059098;19;20014;-74
2022/08/02 05:23:56;;;;;;;9.38;5.60;;;12.50;99.90;;;;;;3058022;19;20018;-74
2022/08/02 05:25:00;;;;;;;17.35;5.85;;;;;;;;;;3057136;19;20011;-73
2022/08/02 05:26:04;;;;;;;11.35;5.88;;;12.80;99.90;;;;;;3057466;19;20019;-74
2022/08/02 05:27:06;;;;;;;11.65;5.68;;;;;;;;;;3057482;19;20029;-74
2022/08/02 05:28:10;;;;;;;9.63;5.53;;;12.80;99.90;;;;;;3059045;19;20018;-74
2022/08/02 05:29:11;;;;;;;10.05;5.55;;;12.80;99.90;;;;;;3058093;19;20388;-75
2022/08/02 05:30:15;;;;;;;13.10;5.82;;;;;;;;;;3058064;19;20035;-75
2022/08/02 05:31:17;;;;;;;12.27;5.65;;;12.90;99.90;;;;;;3058122;19;20030;-75
2022/08/02 05:32:21;;;;;;;12.80;5.78;;;;;;;;;;3057505;19;20039;-77
2022/08/02 05:33:25;;;;;;;11.63;5.57;;;12.80;99.90;;;;;;3056952;19;20014;-77
2022/08/02 05:34:26;;;;;;;11.30;5.53;;;12.90;99.90;;;;;;3058016;19;20432;-77
2022/08/02 05:35:30;;;;;;;10.55;6.00;;;12.80;99.90;;;;;;3057372;19;20323;-75
2022/08/02 05:36:32;;;;;;;10.77;6.13;;;12.90;99.90;;;;;;3056020;19;20011;-75
2022/08/02 05:37:36;;;;;;;11.52;6.32;;;;;;;;;;3058079;19;20025;-75
2022/08/02 05:38:42;;;;;;;10.75;6.20;;;13.00;99.90;;;;;;3058420;19;20332;-74
2022/08/02 05:39:44;;;;;;;12.23;6.00;;;12.90;99.90;;;;;;3057363;19;20013;-75
2022/08/02 05:40:48;;;;;;;15.00;6.10;;;12.80;99.90;;;;;;3057194;19;20129;-74